Time;durP1;ratioP1;P1;durP2;ratioP2;P2;SDS_P1;SDS_P2;PMS_P1;PMS_P2;Temp;Humidity;BMP_temperature;BMP_pressure;BME280_temperature;BME280_humidity;BME280_pressure;Samples;Min_cycle;Max_cycle;Signal;HPM_P1;HPM_P2
2023/08/13 00:00:44;;;;;;;11.20;9.63;;;23.20;75.20;;;;;;4957157;29;20035;-69
2023/08/13 00:03:13;;;;;;;17.33;9.95;;;23.10;75.30;;;;;;4957613;28;20326;-70
2023/08/13 00:05:39;;;;;;;11.68;9.70;;;23.10;75.30;;;;;;4957375;28;20031;-69
2023/08/13 00:08:05;;;;;;;11.75;9.85;;;23.20;75.30;;;;;;4957364;28;20397;-69
2023/08/13 00:10:34;;;;;;;12.35;9.85;;;23.20;75.30;;;;;;4957244;28;20023;-68
2023/08/13 00:13:00;;;;;;;10.65;9.07;;;23.20;75.30;;;;;;4956992;28;20061;-69
2023/08/13 00:15:26;;;;;;;12.55;9.75;;;23.10;75.30;;;;;;4957248;28;20050;-70
2023/08/13 00:17:52;;;;;;;10.77;9.23;;;23.10;75.20;;;;;;4957259;28;20027;-69
2023/08/13 00:20:18;;;;;;;12.25;9.00;;;23.00;75.20;;;;;;4957281;28;20082;-69
2023/08/13 00:22:44;;;;;;;15.45;9.85;;;23.00;75.20;;;;;;4957465;28;20019;-70
2023/08/13 00:25:10;;;;;;;12.32;9.50;;;22.90;75.30;;;;;;4957185;28;20027;-69
2023/08/13 00:27:48;;;;;;;10.65;9.23;;;22.90;75.30;;;;;;4957135;28;20070;-69
2023/08/13 00:30:15;;;;;;;12.35;9.75;;;22.90;75.30;;;;;;4957378;28;20058;-70
2023/08/13 00:32:41;;;;;;;13.05;10.52;;;22.90;75.20;;;;;;4957029;28;20363;-69
2023/08/13 00:35:12;;;;;;;11.73;10.20;;;22.90;75.20;;;;;;4956087;29;20027;-70
2023/08/13 00:37:38;;;;;;;11.18;9.82;;;22.90;75.30;;;;;;4957583;28;20058;-69
2023/08/13 00:40:07;;;;;;;13.57;9.43;;;22.90;75.50;;;;;;4956813;28;20062;-68
2023/08/13 00:45:06;;;;;;;10.45;9.20;;;22.80;75.50;;;;;;4957491;29;20422;-69
2023/08/13 00:47:35;;;;;;;12.23;9.90;;;22.80;75.50;;;;;;4956974;28;20031;-70
2023/08/13 00:50:03;;;;;;;12.52;10.55;;;22.80;75.50;;;;;;4959450;28;20035;-70
2023/08/13 00:52:29;;;;;;;12.85;10.60;;;22.80;75.60;;;;;;4959824;28;20032;-69
2023/08/13 00:54:56;;;;;;;11.30;9.80;;;22.70;75.60;;;;;;4960992;28;20062;-69
2023/08/13 00:57:25;;;;;;;13.75;10.02;;;22.70;75.60;;;;;;4960601;28;20390;-70
2023/08/13 00:59:51;;;;;;;10.93;9.50;;;22.70;75.70;;;;;;4960516;28;20038;-69
2023/08/13 01:02:17;;;;;;;12.98;9.25;;;22.60;75.80;;;;;;4960651;28;20076;-69
2023/08/13 01:04:43;;;;;;;11.23;9.85;;;22.60;75.80;;;;;;4960592;28;20486;-68
2023/08/13 01:07:10;;;;;;;12.27;9.80;;;22.60;75.90;;;;;;4961069;28;20027;-70
2023/08/13 01:09:52;;;;;;;11.38;9.98;;;22.50;76.00;;;;;;4960673;28;20024;-70
2023/08/13 01:13:09;;;;;;;12.25;10.63;;;22.50;75.90;;;;;;4960735;28;20055;-71
2023/08/13 01:15:40;;;;;;;13.13;10.45;;;22.50;76.00;;;;;;4901823;29;20037;-69
2023/08/13 01:18:07;;;;;;;11.43;9.77;;;22.50;76.00;;;;;;4902112;29;20069;-70
2023/08/13 01:20:36;;;;;;;12.55;10.38;;;22.40;76.00;;;;;;4901409;29;20092;-69
2023/08/13 01:23:02;;;;;;;13.13;9.88;;;22.40;76.00;;;;;;4901992;29;20072;-70
2023/08/13 01:25:29;;;;;;;10.63;9.50;;;22.40;76.00;;;;;;4901910;29;20467;-70
2023/08/13 01:28:06;;;;;;;12.43;10.27;;;22.40;76.10;;;;;;4901512;29;20059;-70
2023/08/13 01:30:40;;;;;;;11.23;9.90;;;22.40;76.20;;;;;;4901529;29;20056;-70
2023/08/13 01:33:12;;;;;;;13.65;10.63;;;22.40;76.10;;;;;;4901866;29;20184;-68
2023/08/13 01:35:39;;;;;;;12.40;9.65;;;22.40;76.20;;;;;;4901282;29;20079;-69
2023/08/13 01:38:07;;;;;;;13.55;11.27;;;22.30;76.30;;;;;;4901743;29;20123;-68
2023/08/13 01:40:33;;;;;;;13.27;10.88;;;22.30;76.40;;;;;;4901019;29;20081;-69
2023/08/13 01:43:03;;;;;;;14.45;11.02;;;22.30;76.20;;;;;;4901128;29;20425;-70
2023/08/13 01:45:29;;;;;;;12.00;9.95;;;22.30;76.20;;;;;;4904420;29;20037;-70
2023/08/13 01:47:55;;;;;;;12.38;10.68;;;22.20;76.30;;;;;;4921602;29;20028;-69
2023/08/13 01:52:55;;;;;;;12.43;11.13;;;22.20;76.30;;;;;;4922017;29;20043;-69
2023/08/13 01:55:23;;;;;;;12.90;10.02;;;22.20;76.40;;;;;;4921507;29;20351;-70
2023/08/13 01:57:55;;;;;;;13.10;10.65;;;22.20;76.30;;;;;;4921398;29;20050;-69
2023/08/13 02:00:21;;;;;;;11.18;9.65;;;22.20;76.40;;;;;;4920443;29;20035;-70
2023/08/13 02:02:48;;;;;;;12.50;10.20;;;22.20;76.40;;;;;;4921404;29;20024;-69
2023/08/13 02:05:14;;;;;;;12.98;10.45;;;22.20;76.40;;;;;;4921272;29;20072;-69
2023/08/13 02:07:40;;;;;;;11.90;10.30;;;22.10;76.50;;;;;;4921275;29;20085;-69
2023/08/13 02:10:09;;;;;;;11.48;10.13;;;22.10;76.60;;;;;;4921181;29;20036;-69
2023/08/13 02:12:35;;;;;;;14.23;10.98;;;22.00;76.60;;;;;;4921463;29;20040;-69
2023/08/13 02:15:02;;;;;;;13.30;10.30;;;22.00;76.70;;;;;;4956186;28;20055;-71
2023/08/13 02:17:28;;;;;;;12.18;10.05;;;22.00;76.60;;;;;;4959514;28;20067;-68
2023/08/13 02:22:26;;;;;;;16.27;12.52;;;22.10;76.60;;;;;;4959680;29;20027;-71
2023/08/13 02:24:51;;;;;;;12.50;10.32;;;22.00;76.70;;;;;;4959139;28;20106;-70
2023/08/13 02:27:17;;;;;;;13.00;9.93;;;22.00;76.60;;;;;;4959090;28;20454;-70
2023/08/13 02:29:47;;;;;;;10.57;9.10;;;22.00;76.70;;;;;;4958958;28;20038;-70
2023/08/13 02:34:47;;;;;;;13.02;10.27;;;22.00;76.70;;;;;;4959744;29;20092;-69
2023/08/13 02:37:14;;;;;;;11.80;10.50;;;22.00;76.70;;;;;;4958889;28;20027;-71
2023/08/13 02:39:41;;;;;;;12.32;11.02;;;21.90;76.70;;;;;;4959304;28;20077;-70
2023/08/13 02:42:07;;;;;;;12.05;10.63;;;21.90;76.70;;;;;;4958781;28;20082;-70
2023/08/13 02:44:35;;;;;;;12.80;10.40;;;22.00;76.70;;;;;;4958699;28;20023;-70
2023/08/13 02:47:00;;;;;;;12.00;10.18;;;22.00;76.70;;;;;;4958715;28;20039;-70
2023/08/13 02:49:29;;;;;;;12.02;10.52;;;21.90;76.70;;;;;;4958840;28;20327;-69
2023/08/13 02:51:55;;;;;;;12.25;10.95;;;21.90;76.70;;;;;;4958615;28;20031;-70
2023/08/13 02:54:22;;;;;;;13.63;10.82;;;21.90;76.80;;;;;;4959106;28;20118;-70
2023/08/13 02:56:48;;;;;;;13.52;11.82;;;21.90;76.80;;;;;;4958550;28;20055;-70
2023/08/13 02:59:14;;;;;;;12.93;11.38;;;21.90;76.80;;;;;;4958486;28;20031;-69
2023/08/13 03:01:40;;;;;;;13.25;10.60;;;21.90;76.60;;;;;;4958319;28;20047;-69
2023/08/13 03:04:11;;;;;;;14.80;13.20;;;21.80;76.80;;;;;;4958292;29;20034;-68
2023/08/13 03:06:41;;;;;;;17.15;12.20;;;21.70;76.70;;;;;;4958837;28;20023;-69
2023/08/13 03:09:20;;;;;;;17.13;13.07;;;21.70;76.80;;;;;;4958249;28;20373;-69
2023/08/13 03:11:46;;;;;;;18.48;14.85;;;21.60;76.90;;;;;;4957652;28;20035;-69
2023/08/13 03:14:12;;;;;;;17.95;13.90;;;21.60;77.00;;;;;;4958049;28;20123;-69
2023/08/13 03:16:40;;;;;;;14.98;11.70;;;21.50;77.10;;;;;;4958054;28;20462;-68
2023/08/13 03:19:06;;;;;;;14.77;12.43;;;21.50;77.20;;;;;;4958086;28;20046;-70
2023/08/13 03:21:32;;;;;;;14.13;12.38;;;21.50;77.20;;;;;;4957900;28;20030;-68
2023/08/13 03:24:00;;;;;;;15.43;13.82;;;21.50;77.20;;;;;;4958243;28;20434;-69
2023/08/13 03:26:27;;;;;;;15.05;13.30;;;21.40;77.40;;;;;;4957829;28;20023;-70
2023/08/13 03:28:52;;;;;;;13.93;11.50;;;21.40;77.60;;;;;;4957936;28;20505;-68
2023/08/13 03:31:18;;;;;;;14.23;12.35;;;21.40;77.60;;;;;;4958040;28;20046;-70
2023/08/13 03:33:46;;;;;;;14.10;11.48;;;21.40;77.70;;;;;;4957835;28;20081;-70
2023/08/13 03:36:12;;;;;;;13.65;11.57;;;21.40;77.50;;;;;;4957788;28;20031;-69
2023/08/13 03:38:40;;;;;;;14.07;11.77;;;21.40;77.50;;;;;;4958319;28;20042;-69
2023/08/13 03:41:07;;;;;;;16.23;14.52;;;21.30;77.40;;;;;;4958101;28;20034;-68
2023/08/13 03:43:33;;;;;;;15.68;13.30;;;21.30;77.40;;;;;;4957903;28;20031;-70
2023/08/13 03:46:02;;;;;;;15.07;11.75;;;21.20;77.40;;;;;;4957626;28;20072;-70
2023/08/13 03:48:28;;;;;;;14.50;12.68;;;21.20;77.60;;;;;;4957608;28;20027;-71
2023/08/13 03:50:54;;;;;;;16.55;13.52;;;21.10;77.70;;;;;;4957523;28;20476;-70
2023/08/13 03:53:24;;;;;;;15.82;12.85;;;21.10;77.60;;;;;;4957770;29;20028;-69
2023/08/13 03:55:53;;;;;;;13.93;11.95;;;21.10;77.90;;;;;;4957438;28;20102;-70
2023/08/13 03:58:19;;;;;;;13.30;11.68;;;21.10;77.90;;;;;;4957970;28;20090;-69
2023/08/13 04:00:48;;;;;;;15.35;13.05;;;21.10;77.90;;;;;;4957465;28;20039;-70
2023/08/13 04:03:16;;;;;;;13.85;12.00;;;21.10;77.70;;;;;;4957406;28;20090;-68
2023/08/13 04:05:42;;;;;;;14.98;12.40;;;21.10;77.80;;;;;;4957404;28;20038;-68
2023/08/13 04:08:10;;;;;;;15.57;12.80;;;21.10;77.70;;;;;;4957613;28;20027;-69
2023/08/13 04:10:36;;;;;;;14.95;12.80;;;21.10;77.90;;;;;;4957242;28;20119;-70
2023/08/13 04:13:03;;;;;;;14.00;12.45;;;21.00;77.90;;;;;;4957510;28;20498;-69
2023/08/13 04:15:33;;;;;;;13.93;12.35;;;21.10;77.80;;;;;;4957756;28;20023;-69
2023/08/13 04:17:59;;;;;;;16.23;12.35;;;21.00;77.90;;;;;;4957094;28;20035;-69
2023/08/13 04:20:25;;;;;;;15.73;12.80;;;21.00;78.10;;;;;;4957068;28;20032;-70
2023/08/13 04:22:54;;;;;;;16.23;14.38;;;21.10;78.10;;;;;;4957160;28;20027;-70
2023/08/13 04:25:20;;;;;;;15.30;12.70;;;21.10;78.10;;;;;;4956375;28;20112;-71
2023/08/13 04:27:46;;;;;;;14.75;12.98;;;21.00;78.20;;;;;;4957609;28;20110;-70
2023/08/13 04:30:13;;;;;;;14.43;11.52;;;21.10;78.20;;;;;;4957029;28;20131;-71
2023/08/13 04:32:39;;;;;;;15.23;11.90;;;21.10;78.20;;;;;;4957354;28;20051;-70
2023/08/13 04:35:06;;;;;;;15.27;12.48;;;21.10;78.20;;;;;;4956997;28;20031;-71
2023/08/13 04:37:34;;;;;;;14.85;12.57;;;21.20;78.10;;;;;;4957006;28;20035;-69
2023/08/13 04:40:05;;;;;;;13.68;12.18;;;21.30;78.00;;;;;;4957358;28;20023;-70
2023/08/13 04:42:32;;;;;;;15.60;12.52;;;21.30;77.90;;;;;;4956878;28;20031;-70
2023/08/13 04:44:58;;;;;;;15.68;13.35;;;21.40;78.00;;;;;;4957210;28;20024;-70
2023/08/13 04:47:25;;;;;;;15.48;13.18;;;21.40;77.90;;;;;;4956897;28;20037;-70
2023/08/13 04:49:54;;;;;;;15.90;13.45;;;21.50;77.80;;;;;;4956816;29;20023;-70
2023/08/13 04:52:20;;;;;;;15.30;12.77;;;21.60;77.70;;;;;;4956900;28;20090;-69
2023/08/13 04:54:47;;;;;;;15.70;13.88;;;21.60;77.70;;;;;;4956864;28;20023;-70
2023/08/13 04:57:13;;;;;;;15.15;13.30;;;21.70;77.60;;;;;;4957071;28;20450;-70
2023/08/13 04:59:39;;;;;;;16.40;12.45;;;21.80;77.60;;;;;;4957007;28;20082;-70
2023/08/13 05:02:05;;;;;;;15.57;13.05;;;22.00;77.50;;;;;;4957240;28;20074;-70
2023/08/13 05:04:31;;;;;;;19.63;13.57;;;22.80;77.20;;;;;;4956804;28;20121;-70
2023/08/13 05:06:57;;;;;;;14.75;13.18;;;23.90;75.50;;;;;;4957007;28;20034;-69
2023/08/13 05:09:23;;;;;;;13.70;12.15;;;25.00;72.90;;;;;;4956663;28;20447;-70
2023/08/13 05:11:49;;;;;;;14.98;12.90;;;25.90;70.60;;;;;;4956875;28;20038;-70
2023/08/13 05:14:14;;;;;;;14.07;12.15;;;26.70;68.90;;;;;;4956514;28;20051;-71
2023/08/13 05:16:40;;;;;;;14.40;12.90;;;27.60;67.00;;;;;;4956687;28;20067;-70
2023/08/13 05:19:08;;;;;;;15.35;11.23;;;28.70;64.70;;;;;;4956678;28;20043;-71
2023/08/13 05:21:35;;;;;;;12.85;11.43;;;29.70;62.60;;;;;;4956525;28;20035;-71
2023/08/13 05:24:01;;;;;;;13.20;11.10;;;30.60;60.40;;;;;;4957123;28;20027;-71
2023/08/13 05:26:27;;;;;;;11.43;10.23;;;31.60;58.10;;;;;;4957132;29;20027;-72
2023/08/13 05:28:53;;;;;;;13.02;10.88;;;32.50;56.40;;;;;;4956536;29;20031;-68
2023/08/13 05:31:20;;;;;;;12.82;10.02;;;33.20;54.80;;;;;;4956572;28;20031;-69
2023/08/13 05:33:46;;;;;;;12.40;11.10;;;33.90;53.30;;;;;;4956734;28;20106;-67
2023/08/13 05:36:16;;;;;;;12.13;10.73;;;34.70;51.10;;;;;;4958850;28;20414;-68
2023/08/13 05:38:42;;;;;;;12.32;10.50;;;35.50;49.60;;;;;;4959906;29;20035;-68
2023/08/13 05:41:08;;;;;;;14.07;9.77;;;36.30;48.40;;;;;;4959838;28;20038;-68
2023/08/13 05:43:34;;;;;;;10.52;8.50;;;36.90;47.50;;;;;;4959845;29;20031;-68
2023/08/13 05:46:00;;;;;;;13.10;8.77;;;37.60;46.50;;;;;;4959888;28;20102;-68
2023/08/13 05:48:26;;;;;;;10.48;9.23;;;38.30;45.20;;;;;;4960270;28;20039;-67
2023/08/13 05:50:52;;;;;;;10.20;8.10;;;38.90;44.10;;;;;;4959675;28;20077;-67
2023/08/13 05:53:18;;;;;;;9.55;8.52;;;39.50;43.10;;;;;;4959736;28;20027;-68
2023/08/13 05:55:44;;;;;;;9.85;7.90;;;40.00;42.10;;;;;;4959590;29;20031;-68
2023/08/13 05:58:11;;;;;;;9.32;8.02;;;40.60;41.30;;;;;;4974709;28;20031;-68
2023/08/13 06:00:37;;;;;;;9.35;7.30;;;41.30;40.60;;;;;;4959973;28;20454;-67
2023/08/13 06:03:03;;;;;;;8.52;6.93;;;42.00;39.60;;;;;;4958556;29;20034;-69
2023/08/13 06:05:29;;;;;;;8.93;7.78;;;42.70;38.70;;;;;;4959675;29;20024;-69
2023/08/13 06:07:55;;;;;;;10.65;7.60;;;43.20;37.80;;;;;;4974449;28;20037;-69
2023/08/13 06:10:21;;;;;;;7.93;7.05;;;43.80;37.10;;;;;;4959359;28;20027;-69
2023/08/13 06:12:47;;;;;;;10.13;7.78;;;44.20;36.40;;;;;;4959284;28;20085;-69
2023/08/13 06:15:13;;;;;;;10.60;7.45;;;44.60;35.80;;;;;;4959068;28;20359;-68
2023/08/13 06:17:42;;;;;;;8.82;7.93;;;44.90;35.30;;;;;;4959729;28;20041;-69
2023/08/13 06:20:12;;;;;;;10.52;7.70;;;45.40;34.90;;;;;;4958965;28;20035;-69
2023/08/13 06:22:38;;;;;;;7.97;6.93;;;45.90;34.50;;;;;;4959662;28;20050;-69
2023/08/13 06:25:04;;;;;;;8.13;6.75;;;46.40;34.00;;;;;;4959613;28;20051;-70
2023/08/13 06:27:31;;;;;;;10.52;7.55;;;46.70;33.30;;;;;;4959583;28;20055;-70
2023/08/13 06:29:57;;;;;;;8.57;7.03;;;47.10;32.90;;;;;;4958922;28;20062;-69
2023/08/13 06:32:23;;;;;;;10.93;7.35;;;47.40;32.50;;;;;;4958938;28;20094;-70
2023/08/13 06:34:49;;;;;;;10.57;7.60;;;47.80;32.10;;;;;;4958897;28;20331;-69
2023/08/13 06:37:15;;;;;;;8.88;7.53;;;47.90;31.70;;;;;;4958863;28;20019;-69
2023/08/13 06:39:41;;;;;;;10.60;8.38;;;48.20;31.20;;;;;;4958840;28;20026;-69
2023/08/13 06:42:07;;;;;;;10.70;7.47;;;48.30;30.60;;;;;;4957860;28;20530;-69
2023/08/13 06:44:33;;;;;;;8.85;7.10;;;48.50;30.70;;;;;;4959268;28;20019;-69
2023/08/13 06:46:59;;;;;;;13.18;7.88;;;48.70;30.50;;;;;;4957700;28;20023;-69
2023/08/13 06:49:25;;;;;;;10.60;6.80;;;48.90;30.40;;;;;;4958427;28;20023;-70
2023/08/13 06:51:51;;;;;;;9.68;6.88;;;49.00;30.00;;;;;;4958936;28;20042;-70
2023/08/13 06:54:18;;;;;;;8.20;6.88;;;49.10;29.80;;;;;;4958808;28;20027;-69
2023/08/13 06:56:44;;;;;;;10.02;7.72;;;49.10;29.70;;;;;;4958232;28;20036;-69
2023/08/13 06:59:10;;;;;;;10.77;6.72;;;49.20;29.60;;;;;;4958800;28;20035;-70
2023/08/13 07:01:36;;;;;;;8.43;7.05;;;49.20;29.40;;;;;;4957222;29;20046;-70
2023/08/13 07:04:02;;;;;;;8.63;6.45;;;49.30;29.20;;;;;;4958186;28;20138;-70
2023/08/13 07:06:29;;;;;;;8.98;6.47;;;49.40;29.30;;;;;;4958074;28;20086;-70
2023/08/13 07:08:55;;;;;;;9.13;6.38;;;49.50;28.70;;;;;;4958100;28;20510;-69
2023/08/13 07:11:21;;;;;;;7.30;6.30;;;49.50;28.50;;;;;;4957985;28;20063;-69
2023/08/13 07:13:55;;;;;;;8.02;6.53;;;49.50;28.40;;;;;;4957754;28;20347;-70
2023/08/13 07:16:21;;;;;;;10.95;6.57;;;48.90;28.20;;;;;;4957928;28;20082;-70
2023/08/13 07:18:47;;;;;;;7.93;6.95;;;47.50;29.30;;;;;;4958397;28;20027;-70
2023/08/13 07:21:13;;;;;;;8.57;6.95;;;45.90;30.70;;;;;;4957887;28;20078;-69
2023/08/13 07:23:40;;;;;;;8.65;6.30;;;44.20;32.30;;;;;;4958352;28;20031;-69
2023/08/13 07:26:06;;;;;;;7.13;6.22;;;42.60;33.90;;;;;;4957757;28;20058;-68
2023/08/13 07:28:35;;;;;;;8.50;6.60;;;41.30;35.40;;;;;;4958206;28;20364;-69
2023/08/13 07:31:05;;;;;;;7.38;6.57;;;40.20;36.80;;;;;;4958068;28;20023;-70
2023/08/13 07:33:32;;;;;;;8.57;7.15;;;39.30;38.20;;;;;;4957538;28;20027;-68
2023/08/13 07:36:02;;;;;;;8.70;6.75;;;38.50;39.10;;;;;;4958089;28;20027;-70
2023/08/13 07:38:28;;;;;;;7.25;6.32;;;37.90;39.80;;;;;;4957776;28;20051;-69
2023/08/13 07:41:00;;;;;;;8.18;6.93;;;37.50;40.60;;;;;;4957908;28;20496;-72
2023/08/13 07:43:26;;;;;;;10.38;6.93;;;37.10;41.00;;;;;;4957520;28;20042;-70
2023/08/13 07:45:53;;;;;;;7.90;6.38;;;36.90;41.50;;;;;;4972551;28;20097;-70
2023/08/13 07:48:19;;;;;;;8.18;6.88;;;36.60;41.90;;;;;;4957722;28;20035;-70
2023/08/13 07:50:45;;;;;;;8.40;6.32;;;36.40;42.30;;;;;;4957768;28;20342;-70
2023/08/13 07:53:11;;;;;;;8.90;6.85;;;36.20;42.80;;;;;;4957551;28;20027;-69
2023/08/13 07:55:37;;;;;;;9.10;6.55;;;36.10;42.80;;;;;;4957255;28;20027;-69
2023/08/13 07:58:04;;;;;;;7.93;6.80;;;36.00;43.20;;;;;;4957711;28;20050;-69
2023/08/13 08:02:55;;;;;;;7.85;6.53;;;35.90;42.90;;;;;;4957684;29;20114;-70
2023/08/13 08:05:23;;;;;;;7.03;6.32;;;35.60;43.30;;;;;;4956516;28;20070;-69
2023/08/13 08:07:49;;;;;;;8.30;7.28;;;35.50;43.70;;;;;;4956946;28;20062;-70
2023/08/13 08:10:15;;;;;;;7.57;6.72;;;35.50;43.70;;;;;;4956966;28;20442;-70
2023/08/13 08:12:41;;;;;;;8.63;6.82;;;35.40;44.00;;;;;;4957292;29;20027;-69
2023/08/13 08:15:07;;;;;;;10.13;6.60;;;35.40;43.80;;;;;;4957615;28;20043;-70
2023/08/13 08:17:35;;;;;;;8.05;6.90;;;35.40;43.80;;;;;;4957240;29;20022;-69
2023/08/13 08:20:02;;;;;;;8.18;7.30;;;35.30;43.90;;;;;;4956872;28;20039;-69
2023/08/13 08:22:28;;;;;;;7.25;6.22;;;35.20;44.20;;;;;;4957211;28;20042;-71
2023/08/13 08:24:54;;;;;;;7.20;6.28;;;35.20;44.60;;;;;;4956856;28;20031;-70
2023/08/13 08:27:20;;;;;;;8.07;6.82;;;35.20;44.70;;;;;;4957375;28;20035;-70
2023/08/13 08:29:46;;;;;;;7.70;6.45;;;35.10;44.60;;;;;;4956735;28;20019;-69
2023/08/13 08:32:12;;;;;;;7.97;6.25;;;35.10;44.70;;;;;;4956741;28;20046;-69
2023/08/13 08:34:38;;;;;;;7.38;6.43;;;35.00;44.70;;;;;;4956797;28;20023;-69
2023/08/13 08:37:04;;;;;;;6.95;6.25;;;35.10;44.60;;;;;;4956727;28;20509;-69
2023/08/13 08:39:30;;;;;;;6.95;5.72;;;35.10;44.60;;;;;;4956290;29;20110;-69
2023/08/13 08:41:57;;;;;;;6.78;5.55;;;35.00;44.70;;;;;;4956699;28;20117;-71
2023/08/13 08:44:24;;;;;;;7.13;6.18;;;35.10;44.90;;;;;;4955709;29;20046;-69
2023/08/13 08:46:52;;;;;;;7.00;6.03;;;35.00;44.90;;;;;;4956598;28;20367;-70
2023/08/13 08:49:21;;;;;;;7.65;6.00;;;35.00;44.80;;;;;;4956576;28;20031;-69
2023/08/13 08:51:48;;;;;;;6.93;5.95;;;35.00;44.80;;;;;;4956924;28;20052;-69
2023/08/13 08:54:15;;;;;;;8.48;5.70;;;34.90;44.90;;;;;;4956900;28;20015;-69
2023/08/13 08:56:41;;;;;;;6.20;5.57;;;34.90;45.10;;;;;;4957070;28;20438;-70
2023/08/13 08:59:07;;;;;;;6.60;5.70;;;34.90;45.30;;;;;;4956784;29;20025;-70
2023/08/13 09:01:34;;;;;;;7.25;5.97;;;35.00;45.20;;;;;;4955685;28;20027;-68
2023/08/13 09:04:03;;;;;;;9.45;6.70;;;35.00;45.20;;;;;;4956740;28;20034;-69
2023/08/13 09:06:55;;;;;;;6.72;5.85;;;35.00;45.00;;;;;;4957022;28;20079;-69
2023/08/13 09:09:22;;;;;;;7.72;6.18;;;35.00;44.80;;;;;;4956858;28;20034;-69
2023/08/13 09:11:48;;;;;;;7.68;6.38;;;35.00;45.00;;;;;;4959796;28;20090;-69
2023/08/13 09:14:15;;;;;;;6.90;6.10;;;34.90;45.00;;;;;;4959188;28;20047;-69
2023/08/13 09:16:52;;;;;;;7.90;6.47;;;35.00;45.10;;;;;;4960308;28;20402;-69
2023/08/13 09:19:19;;;;;;;6.70;6.00;;;35.00;44.90;;;;;;4960461;28;20034;-69
2023/08/13 09:22:04;;;;;;;7.43;6.20;;;34.90;45.20;;;;;;4960183;28;20039;-70
2023/08/13 09:24:38;;;;;;;6.43;5.43;;;34.90;45.00;;;;;;4960446;28;20042;-69
2023/08/13 09:27:07;;;;;;;6.93;5.75;;;34.80;45.20;;;;;;4960657;28;20042;-68
2023/08/13 09:29:34;;;;;;;7.32;6.00;;;34.90;45.40;;;;;;4959974;28;20501;-69
2023/08/13 09:32:07;;;;;;;9.65;6.50;;;34.90;45.50;;;;;;4960209;28;20125;-68
2023/08/13 09:34:37;;;;;;;7.60;6.32;;;34.90;45.50;;;;;;4960490;28;20346;-69
2023/08/13 09:37:05;;;;;;;6.70;6.10;;;34.80;45.50;;;;;;4960483;29;20034;-69
2023/08/13 09:39:33;;;;;;;7.82;6.70;;;34.80;45.40;;;;;;4960362;28;20058;-69
2023/08/13 09:42:06;;;;;;;8.45;7.45;;;34.80;45.10;;;;;;4960339;28;20031;-69
2023/08/13 09:44:32;;;;;;;8.57;7.63;;;34.60;45.10;;;;;;4960168;28;20110;-69
2023/08/13 09:47:02;;;;;;;9.15;7.15;;;34.50;45.20;;;;;;4960121;28;20465;-69
2023/08/13 09:49:33;;;;;;;8.82;7.35;;;34.40;45.10;;;;;;4959660;28;20085;-68
2023/08/13 09:52:08;;;;;;;6.97;6.28;;;34.20;45.50;;;;;;4960182;28;20062;-69
2023/08/13 09:54:57;;;;;;;7.75;6.50;;;34.00;45.80;;;;;;4959648;28;20024;-68
2023/08/13 09:57:26;;;;;;;6.88;6.10;;;34.00;46.10;;;;;;4958792;29;20058;-69
2023/08/13 09:59:53;;;;;;;7.53;6.15;;;34.00;46.20;;;;;;4960031;28;20071;-69
2023/08/13 10:02:21;;;;;;;8.00;6.47;;;34.00;46.50;;;;;;4959564;28;20106;-69
2023/08/13 10:04:48;;;;;;;7.07;6.00;;;34.10;46.50;;;;;;4958613;28;20406;-68
2023/08/13 10:09:40;;;;;;;7.65;6.40;;;34.10;46.10;;;;;;4959893;29;20479;-69
2023/08/13 10:14:34;;;;;;;10.48;6.15;;;34.00;46.20;;;;;;4959022;28;20553;-69
2023/08/13 10:17:05;;;;;;;7.90;6.43;;;34.10;46.30;;;;;;4958102;29;20044;-68
2023/08/13 10:19:39;;;;;;;7.18;6.00;;;34.10;46.20;;;;;;4959465;28;20023;-69
2023/08/13 10:22:09;;;;;;;7.13;6.35;;;34.10;46.20;;;;;;4956877;28;20035;-69
2023/08/13 10:24:35;;;;;;;7.30;5.93;;;34.10;46.00;;;;;;4958910;28;20458;-68
2023/08/13 10:27:02;;;;;;;7.97;7.18;;;34.10;46.30;;;;;;4959338;28;20369;-69
2023/08/13 10:29:37;;;;;;;8.27;6.55;;;34.10;46.30;;;;;;4958771;28;20562;-69
2023/08/13 10:32:16;;;;;;;8.18;6.72;;;34.10;46.50;;;;;;4958047;29;20031;-69
2023/08/13 10:34:47;;;;;;;7.18;6.10;;;34.00;46.90;;;;;;4959226;28;20450;-69
2023/08/13 10:37:18;;;;;;;8.20;5.93;;;34.10;46.80;;;;;;4958942;28;20032;-69
2023/08/13 10:40:03;;;;;;;7.88;6.22;;;34.00;46.80;;;;;;4959150;28;20019;-69
2023/08/13 10:42:32;;;;;;;7.32;6.20;;;34.10;46.70;;;;;;4959156;28;20024;-69
2023/08/13 10:45:03;;;;;;;7.43;6.72;;;34.10;46.40;;;;;;4958467;28;20395;-67
2023/08/13 10:47:47;;;;;;;7.28;6.43;;;34.00;46.80;;;;;;4958392;28;20039;-68
2023/08/13 10:50:16;;;;;;;6.63;6.03;;;34.00;46.80;;;;;;4958852;28;20038;-68
2023/08/13 10:52:45;;;;;;;7.28;6.40;;;34.00;47.00;;;;;;4958419;28;20034;-69
2023/08/13 10:55:12;;;;;;;6.95;5.70;;;34.00;47.30;;;;;;4957497;29;20028;-69
2023/08/13 10:57:41;;;;;;;6.93;6.22;;;34.00;47.50;;;;;;4959001;28;20031;-69
2023/08/13 11:00:12;;;;;;;7.75;6.20;;;34.10;47.50;;;;;;4958731;28;20027;-69
2023/08/13 11:02:45;;;;;;;9.32;6.45;;;34.20;46.90;;;;;;4958950;28;20115;-68
2023/08/13 11:05:10;;;;;;;;;;;34.00;46.80;;;;;;4958745;28;20082;-69
2023/08/13 11:07:39;;;;;;;7.47;6.25;;;33.90;46.90;;;;;;4958608;28;19910;-69
2023/08/13 11:12:32;;;;;;;7.70;6.82;;;33.90;46.90;;;;;;4958859;29;20023;-68
2023/08/13 11:15:01;;;;;;;8.77;6.45;;;33.80;47.10;;;;;;4957951;28;20071;-68
2023/08/13 11:17:28;;;;;;;7.65;6.85;;;33.80;47.00;;;;;;4958595;28;20023;-68
2023/08/13 11:19:57;;;;;;;7.45;6.45;;;33.70;47.00;;;;;;4973065;28;20393;-67
2023/08/13 11:22:27;;;;;;;8.40;6.55;;;33.70;47.00;;;;;;4958495;29;20027;-68
2023/08/13 11:24:53;;;;;;;7.75;6.63;;;33.70;47.20;;;;;;4957883;29;20047;-68
2023/08/13 11:27:19;;;;;;;8.73;7.07;;;33.80;46.90;;;;;;4957839;28;20031;-68
2023/08/13 11:29:45;;;;;;;7.32;6.63;;;33.80;46.60;;;;;;4957709;28;20031;-69
2023/08/13 11:32:16;;;;;;;7.10;6.38;;;33.70;46.90;;;;;;4957950;28;20027;-69
2023/08/13 11:34:42;;;;;;;6.95;6.10;;;33.60;47.20;;;;;;4957523;28;20031;-69
2023/08/13 11:37:09;;;;;;;7.43;6.50;;;33.60;47.40;;;;;;4958479;29;20102;-69
2023/08/13 11:39:37;;;;;;;7.60;6.40;;;33.70;47.40;;;;;;4957927;28;20098;-68
2023/08/13 11:42:10;;;;;;;7.43;6.50;;;33.70;47.40;;;;;;4958199;28;20031;-69
2023/08/13 11:44:35;;;;;;;;;;;33.70;47.50;;;;;;4958037;28;20035;-69
2023/08/13 11:47:04;;;;;;;7.28;5.97;;;33.80;47.50;;;;;;4958136;28;20289;-69
2023/08/13 11:49:31;;;;;;;6.93;6.22;;;33.80;47.50;;;;;;4957783;28;20035;-70
2023/08/13 11:52:00;;;;;;;6.72;6.03;;;33.80;47.60;;;;;;4957985;28;20035;-68
2023/08/13 11:54:26;;;;;;;7.05;6.28;;;33.90;47.80;;;;;;4957671;28;20023;-69
2023/08/13 11:56:54;;;;;;;6.60;5.90;;;33.90;47.80;;;;;;4957700;28;20038;-69
2023/08/13 11:59:31;;;;;;;7.63;6.13;;;33.80;47.80;;;;;;4972821;28;20035;-69
2023/08/13 12:02:00;;;;;;;7.28;6.28;;;33.90;48.00;;;;;;4957414;28;20035;-69
2023/08/13 12:04:33;;;;;;;7.43;5.70;;;33.90;47.60;;;;;;4957896;28;20098;-71
2023/08/13 12:07:02;;;;;;;7.63;6.40;;;34.00;47.50;;;;;;4957876;28;20031;-68
2023/08/13 12:09:28;;;;;;;7.28;6.18;;;34.00;47.00;;;;;;4957504;28;20035;-69
2023/08/13 12:11:54;;;;;;;8.10;6.50;;;33.90;47.00;;;;;;4957250;28;20027;-69
2023/08/13 12:14:21;;;;;;;6.72;5.95;;;33.70;46.90;;;;;;4957306;28;20050;-69
2023/08/13 12:16:48;;;;;;;7.28;6.57;;;33.60;47.30;;;;;;4957441;28;20172;-69
2023/08/13 12:19:17;;;;;;;6.45;5.70;;;33.60;47.40;;;;;;4957154;28;20031;-70
2023/08/13 12:21:52;;;;;;;7.00;6.30;;;33.60;47.40;;;;;;4957582;28;20023;-70
2023/08/13 12:24:20;;;;;;;7.07;6.38;;;33.70;47.20;;;;;;4957111;28;20450;-69
2023/08/13 12:26:52;;;;;;;8.07;6.47;;;33.50;47.20;;;;;;4957567;28;20029;-70
2023/08/13 12:29:20;;;;;;;6.90;6.20;;;33.50;47.50;;;;;;4957070;28;20027;-70
2023/08/13 12:31:47;;;;;;;7.43;6.32;;;33.50;47.60;;;;;;4957425;28;20028;-68
2023/08/13 12:34:14;;;;;;;7.13;6.43;;;33.60;47.70;;;;;;4957004;28;20038;-69
2023/08/13 12:36:40;;;;;;;6.78;6.07;;;33.60;47.60;;;;;;4957235;28;20027;-69
2023/08/13 12:39:06;;;;;;;9.00;6.13;;;33.50;47.80;;;;;;4957000;28;20030;-69
2023/08/13 12:41:34;;;;;;;7.45;5.82;;;33.60;47.90;;;;;;4956830;28;20074;-69
2023/08/13 12:44:00;;;;;;;7.32;5.75;;;33.70;47.90;;;;;;4956828;29;20031;-70
2023/08/13 12:46:26;;;;;;;9.45;5.97;;;33.80;47.90;;;;;;4959654;28;20143;-69
2023/08/13 12:48:57;;;;;;;7.20;5.70;;;33.80;47.90;;;;;;4960833;29;20425;-70
2023/08/13 12:51:26;;;;;;;6.68;5.97;;;33.90;47.90;;;;;;4960626;29;20046;-69
2023/08/13 12:53:54;;;;;;;7.35;5.85;;;33.90;48.00;;;;;;4960741;28;20020;-69
2023/08/13 13:01:18;;;;;;;7.53;6.43;;;33.90;47.60;;;;;;4961099;29;20078;-69
2023/08/13 13:03:45;;;;;;;6.95;6.25;;;34.00;47.40;;;;;;4960562;28;20475;-70
2023/08/13 13:06:12;;;;;;;6.55;5.93;;;33.90;47.50;;;;;;4961053;28;20111;-69